Time;durP1;ratioP1;P1;durP2;ratioP2;P2;SDS_P1;SDS_P2;PMS_P1;PMS_P2;Temp;Humidity;BMP_temperature;BMP_pressure;BME280_temperature;BME280_humidity;BME280_pressure;Samples;Min_cycle;Max_cycle;Signal;HPM_P1;HPM_P2
2022/01/11 00:02:58;;;;;;;48.67;20.57;;;-1.80;99.90;;;;;;8481957;27;20204;-66
2022/01/11 00:07:01;;;;;;;59.27;23.97;;;-1.80;99.90;;;;;;8500574;27;20184;-66
2022/01/11 00:11:04;;;;;;;51.33;21.67;;;-1.80;99.90;;;;;;8483569;27;20278;-66
2022/01/11 00:15:06;;;;;;;41.27;17.97;;;-1.80;99.90;;;;;;8457125;28;20248;-66
2022/01/11 00:19:07;;;;;;;44.90;17.57;;;-1.70;99.90;;;;;;8479684;27;20206;-66
2022/01/11 00:27:10;;;;;;;49.63;18.30;;;-1.70;99.90;;;;;;8493308;27;20178;-66
2022/01/11 00:31:11;;;;;;;37.50;17.63;;;-1.70;99.90;;;;;;8482206;27;20358;-66
2022/01/11 00:35:15;;;;;;;36.13;17.23;;;-1.70;99.90;;;;;;8472644;27;20200;-66
2022/01/11 00:39:16;;;;;;;37.77;17.60;;;-1.70;99.90;;;;;;8477859;27;20253;-66
2022/01/11 00:43:19;;;;;;;37.37;17.10;;;-1.70;99.90;;;;;;8481181;27;20185;-66
2022/01/11 00:47:20;;;;;;;41.37;18.67;;;-1.60;99.90;;;;;;8481074;27;20312;-66
2022/01/11 00:51:21;;;;;;;42.47;18.83;;;-1.70;99.90;;;;;;8481409;27;20192;-67
2022/01/11 00:55:22;;;;;;;40.17;18.80;;;-1.60;99.90;;;;;;8457166;28;20200;-66
2022/01/11 00:59:23;;;;;;;42.17;18.53;;;-1.60;99.90;;;;;;8483490;27;20181;-66
2022/01/11 01:03:25;;;;;;;44.90;18.60;;;-1.60;99.90;;;;;;8471105;27;20594;-67
2022/01/11 01:07:26;;;;;;;43.10;19.33;;;-1.60;99.90;;;;;;8472220;27;20251;-67
2022/01/11 01:11:27;;;;;;;43.17;19.63;;;-1.60;99.90;;;;;;8475651;27;20189;-66
2022/01/11 01:15:28;;;;;;;40.17;18.03;;;-1.50;99.90;;;;;;8489118;27;20211;-66
2022/01/11 01:19:29;;;;;;;43.03;19.33;;;-1.50;99.90;;;;;;8471735;27;20177;-67
2022/01/11 01:23:30;;;;;;;45.13;18.90;;;-1.50;99.90;;;;;;8479062;27;20189;-67
2022/01/11 01:27:31;;;;;;;32.47;16.27;;;-1.50;99.90;;;;;;8458286;27;20906;-67
2022/01/11 01:31:32;;;;;;;37.27;20.10;;;-1.50;99.90;;;;;;8472183;27;20180;-66
2022/01/11 01:35:39;;;;;;;41.20;17.87;;;-1.60;99.90;;;;;;8477537;27;20200;-67
2022/01/11 01:39:40;;;;;;;38.27;17.83;;;-1.60;99.90;;;;;;8481107;27;20174;-67
2022/01/11 01:43:43;;;;;;;47.30;20.67;;;-1.60;99.90;;;;;;8470535;27;20177;-67
2022/01/11 01:47:44;;;;;;;40.20;19.33;;;-1.50;99.90;;;;;;8476050;27;20278;-67
2022/01/11 01:51:46;;;;;;;41.17;19.13;;;-1.50;99.90;;;;;;8487223;27;20185;-67
2022/01/11 01:55:48;;;;;;;41.67;18.57;;;-1.50;99.90;;;;;;8487124;27;20307;-67
2022/01/11 01:59:49;;;;;;;43.30;18.33;;;-1.50;99.90;;;;;;8486817;27;20173;-66
2022/01/11 02:03:49;;;;;;;42.93;18.70;;;-1.50;99.90;;;;;;8479216;27;20185;-67
2022/01/11 02:07:50;;;;;;;41.43;18.53;;;-1.50;99.90;;;;;;8473034;27;20202;-67
2022/01/11 02:11:51;;;;;;;30.20;16.77;;;-1.50;99.90;;;;;;8475709;27;20188;-66
2022/01/11 02:15:52;;;;;;;30.13;17.07;;;-1.50;99.90;;;;;;8488494;27;20243;-67
2022/01/11 02:19:56;;;;;;;37.53;18.17;;;-1.40;99.90;;;;;;8460890;27;20169;-67
2022/01/11 02:24:01;;;;;;;35.73;16.50;;;-1.40;99.90;;;;;;8466272;27;20205;-67
2022/01/11 02:28:02;;;;;;;36.67;16.63;;;-1.40;99.90;;;;;;8473444;27;20251;-67
2022/01/11 02:32:03;;;;;;;35.93;17.33;;;-1.30;99.90;;;;;;8476034;27;20184;-67
2022/01/11 02:36:07;;;;;;;39.90;17.93;;;-1.40;99.90;;;;;;8477304;27;20206;-67
2022/01/11 02:40:08;;;;;;;36.80;17.50;;;-1.40;99.90;;;;;;8469633;27;20271;-67
2022/01/11 02:44:09;;;;;;;32.40;16.60;;;-1.40;99.90;;;;;;8476898;27;20206;-67
2022/01/11 02:48:10;;;;;;;41.37;20.00;;;-1.40;99.90;;;;;;8485178;27;20642;-67
2022/01/11 02:52:11;;;;;;;39.60;19.13;;;-1.40;99.90;;;;;;8472105;27;20203;-67
2022/01/11 02:56:12;;;;;;;40.23;17.90;;;-1.40;99.90;;;;;;8476964;27;20243;-67
2022/01/11 03:00:20;;;;;;;38.87;17.30;;;-1.40;99.90;;;;;;8468565;28;20235;-67
2022/01/11 03:04:21;;;;;;;28.23;15.20;;;-1.40;99.90;;;;;;8469273;27;20179;-67
2022/01/11 03:08:23;;;;;;;29.90;15.33;;;-1.40;99.90;;;;;;8472729;28;20211;-67
2022/01/11 03:12:24;;;;;;;28.23;13.77;;;-1.50;99.90;;;;;;8464762;27;20288;-68
2022/01/11 03:16:25;;;;;;;29.07;14.93;;;-1.50;99.90;;;;;;8474908;27;20629;-67
2022/01/11 03:20:26;;;;;;;30.27;15.53;;;-1.60;99.90;;;;;;8473302;28;20180;-67
2022/01/11 03:24:30;;;;;;;29.27;14.53;;;-1.60;99.90;;;;;;8474245;27;20208;-67
2022/01/11 03:28:32;;;;;;;32.50;15.77;;;-1.70;99.90;;;;;;8476476;28;20190;-67
2022/01/11 03:32:33;;;;;;;31.33;13.60;;;-1.90;99.90;;;;;;8463934;28;20187;-67
2022/01/11 03:36:34;;;;;;;33.33;14.03;;;-2.10;99.90;;;;;;8485259;28;20232;-73
2022/01/11 03:40:35;;;;;;;37.37;18.63;;;-2.30;99.90;;;;;;8465220;28;20204;-67
2022/01/11 03:44:36;;;;;;;42.80;19.07;;;-2.50;99.90;;;;;;8475955;27;20173;-67
2022/01/11 03:48:37;;;;;;;36.40;16.67;;;-2.60;99.90;;;;;;8466163;27;20211;-69
2022/01/11 03:52:39;;;;;;;44.57;19.03;;;-2.80;99.90;;;;;;8478209;27;20189;-69
2022/01/11 03:56:40;;;;;;;44.50;19.97;;;-2.90;99.90;;;;;;8477935;27;20207;-69
2022/01/11 04:00:42;;;;;;;43.37;20.23;;;-3.10;99.90;;;;;;8475832;27;20287;-69
2022/01/11 04:04:44;;;;;;;33.87;17.67;;;-3.40;99.90;;;;;;8479511;27;20182;-69
2022/01/11 04:08:46;;;;;;;26.50;12.80;;;-3.60;99.90;;;;;;8479371;27;20281;-69
2022/01/11 04:12:48;;;;;;;25.70;13.57;;;-3.80;99.90;;;;;;8471971;27;20187;-69
2022/01/11 04:16:49;;;;;;;24.63;11.20;;;-4.00;99.90;;;;;;8474779;27;20232;-69
2022/01/11 04:20:50;;;;;;;26.17;13.20;;;-4.20;99.90;;;;;;8476764;27;20172;-69
2022/01/11 04:24:51;;;;;;;25.63;11.63;;;-4.30;99.90;;;;;;8471286;27;20175;-69
2022/01/11 04:28:51;;;;;;;25.50;12.63;;;-4.40;99.90;;;;;;8478846;27;20182;-69
2022/01/11 04:32:53;;;;;;;26.47;11.60;;;-4.50;99.90;;;;;;8489340;27;20179;-69
2022/01/11 04:36:54;;;;;;;22.80;11.00;;;-4.60;99.90;;;;;;8479522;27;20221;-69
2022/01/11 04:40:55;;;;;;;24.50;10.67;;;-4.70;99.90;;;;;;8466660;27;20187;-69
2022/01/11 04:44:56;;;;;;;22.50;9.90;;;-4.90;99.90;;;;;;8485537;27;20280;-69
2022/01/11 04:48:59;;;;;;;22.53;9.87;;;-5.00;99.90;;;;;;8474936;27;20178;-69
2022/01/11 04:53:01;;;;;;;23.33;10.30;;;-5.10;99.90;;;;;;8479692;27;20182;-69
2022/01/11 04:57:02;;;;;;;22.50;10.07;;;-5.20;99.90;;;;;;8478500;27;20213;-70
2022/01/11 05:01:05;;;;;;;21.80;9.33;;;-5.20;99.90;;;;;;8474687;27;20183;-69
2022/01/11 05:05:06;;;;;;;19.03;9.47;;;-5.30;99.90;;;;;;8477512;27;20171;-69
2022/01/11 05:09:07;;;;;;;22.83;9.37;;;-5.40;99.90;;;;;;8463471;27;20179;-69
2022/01/11 05:13:13;;;;;;;21.53;9.97;;;-5.50;99.90;;;;;;8470491;27;20186;-69
2022/01/11 05:17:14;;;;;;;19.53;9.60;;;-5.50;99.90;;;;;;8473305;27;20211;-69
2022/01/11 05:21:14;;;;;;;20.90;9.13;;;-5.60;99.90;;;;;;8480467;27;20175;-69
2022/01/11 05:25:15;;;;;;;20.53;10.17;;;-5.70;99.90;;;;;;8485869;27;20179;-69
2022/01/11 05:29:16;;;;;;;19.03;8.57;;;-5.70;99.90;;;;;;8469193;27;20182;-69
2022/01/11 05:33:17;;;;;;;23.60;8.57;;;-5.80;99.90;;;;;;8478562;27;20193;-70
2022/01/11 05:37:18;;;;;;;19.47;9.87;;;-5.90;99.90;;;;;;8471071;27;20271;-70
2022/01/11 05:41:19;;;;;;;21.73;9.80;;;-6.00;99.90;;;;;;8473273;27;20185;-69
2022/01/11 05:45:20;;;;;;;22.07;8.97;;;-6.00;99.90;;;;;;8462240;27;20176;-69
2022/01/11 05:49:21;;;;;;;22.70;10.60;;;-6.10;99.90;;;;;;8483405;27;20178;-70
2022/01/11 05:53:22;;;;;;;21.47;9.83;;;-6.10;99.90;;;;;;8484648;27;20196;-69
2022/01/11 05:57:22;;;;;;;26.07;10.53;;;-6.30;99.90;;;;;;8476847;27;20208;-69
2022/01/11 06:01:23;;;;;;;24.97;10.70;;;-6.30;99.90;;;;;;8469699;27;20211;-69
2022/01/11 06:05:25;;;;;;;23.30;10.03;;;-6.40;99.90;;;;;;8470345;27;20194;-69
2022/01/11 06:09:28;;;;;;;25.13;9.63;;;-6.40;99.90;;;;;;8482202;27;20190;-69
2022/01/11 06:13:28;;;;;;;24.53;9.80;;;-6.50;99.90;;;;;;8481929;27;20272;-69
2022/01/11 06:17:29;;;;;;;22.87;9.77;;;-6.50;99.90;;;;;;8476655;27;20216;-69
2022/01/11 06:21:30;;;;;;;21.90;8.43;;;-6.60;99.90;;;;;;8473938;27;20179;-69
2022/01/11 06:25:31;;;;;;;24.87;9.93;;;-6.60;99.90;;;;;;8472849;27;20191;-69
2022/01/11 06:29:32;;;;;;;24.77;9.67;;;-6.60;99.90;;;;;;8481970;27;20209;-69
2022/01/11 06:33:33;;;;;;;24.23;10.60;;;-6.70;99.90;;;;;;8483459;27;20213;-69
2022/01/11 06:37:35;;;;;;;28.83;12.43;;;-6.70;99.90;;;;;;8476860;27;20204;-69
2022/01/11 06:41:36;;;;;;;25.80;11.03;;;-6.80;99.90;;;;;;8477365;27;20179;-69
2022/01/11 06:45:36;;;;;;;20.70;9.87;;;-6.90;99.90;;;;;;8473030;27;20266;-69
2022/01/11 06:49:39;;;;;;;24.30;10.73;;;-6.90;99.90;;;;;;8478027;27;20189;-69
2022/01/11 06:53:39;;;;;;;20.87;9.40;;;-6.90;99.90;;;;;;8480645;27;20291;-69
2022/01/11 06:57:40;;;;;;;23.33;9.67;;;-7.00;99.90;;;;;;8473940;28;20219;-69
2022/01/11 07:01:41;;;;;;;25.33;11.07;;;-7.00;99.90;;;;;;8476775;27;20206;-69
2022/01/11 07:05:43;;;;;;;24.43;10.70;;;-7.00;99.90;;;;;;8472267;27;20281;-69
2022/01/11 07:09:44;;;;;;;19.27;9.50;;;-7.00;99.90;;;;;;8477308;27;20269;-70
2022/01/11 07:18:44;;;;;;;23.23;11.43;;;-7.00;99.90;;;;;;8458670;27;20219;-69
2022/01/11 07:22:45;;;;;;;21.70;10.30;;;-7.00;99.90;;;;;;8487266;27;20202;-69
2022/01/11 07:26:46;;;;;;;26.17;11.03;;;-7.00;99.90;;;;;;8485176;27;20296;-69
2022/01/11 07:30:46;;;;;;;26.60;11.33;;;-6.90;99.90;;;;;;8486020;27;20175;-69
2022/01/11 07:34:47;;;;;;;30.23;13.03;;;-6.90;99.90;;;;;;8487740;27;20178;-69
2022/01/11 07:38:50;;;;;;;55.00;19.30;;;-6.80;99.90;;;;;;8488487;27;20212;-69
2022/01/11 07:42:51;;;;;;;60.03;18.33;;;-6.70;99.90;;;;;;8469533;27;20186;-69
2022/01/11 07:46:53;;;;;;;47.07;18.40;;;-6.60;99.90;;;;;;8473478;27;20188;-69
2022/01/11 07:50:54;;;;;;;44.07;17.97;;;-6.60;99.90;;;;;;8486833;27;20250;-69
2022/01/11 07:54:54;;;;;;;33.00;14.73;;;-6.50;99.90;;;;;;8481368;27;20187;-69
2022/01/11 07:58:55;;;;;;;36.87;15.43;;;-6.40;99.90;;;;;;8474515;27;20238;-69
2022/01/11 08:02:56;;;;;;;31.37;13.73;;;-6.30;99.90;;;;;;8482474;27;20391;-69
2022/01/11 08:07:01;;;;;;;30.50;15.27;;;-6.20;99.90;;;;;;8490301;27;20181;-69
2022/01/11 08:11:02;;;;;;;36.33;16.37;;;-6.10;99.90;;;;;;8479113;27;20180;-69
2022/01/11 08:15:03;;;;;;;38.63;15.77;;;-5.90;99.90;;;;;;8483154;27;20185;-69
2022/01/11 08:19:04;;;;;;;36.60;17.83;;;-5.70;99.90;;;;;;8481830;27;20179;-69
2022/01/11 08:23:05;;;;;;;48.37;20.03;;;-5.60;99.90;;;;;;8464425;27;20219;-69
2022/01/11 08:27:06;;;;;;;42.60;18.87;;;-5.40;99.90;;;;;;8479109;27;20197;-69
2022/01/11 08:31:07;;;;;;;61.90;25.30;;;-5.20;99.90;;;;;;8488833;27;20185;-69
2022/01/11 08:35:08;;;;;;;62.80;29.83;;;-5.00;99.90;;;;;;8475081;27;20213;-69
2022/01/11 08:39:10;;;;;;;65.37;29.80;;;-4.80;99.90;;;;;;8475061;27;20568;-68
2022/01/11 08:43:11;;;;;;;120.33;47.80;;;-4.60;99.90;;;;;;8478933;27;20189;-69
2022/01/11 08:47:13;;;;;;;150.07;51.57;;;-4.40;99.90;;;;;;8477282;27;20210;-68
2022/01/11 08:51:14;;;;;;;121.30;43.17;;;-4.20;99.90;;;;;;8481227;27;20175;-69
2022/01/11 08:55:15;;;;;;;101.77;41.43;;;-4.10;99.90;;;;;;8479810;27;20210;-70
2022/01/11 08:59:15;;;;;;;74.80;31.40;;;-3.90;99.90;;;;;;8479382;27;20588;-69
2022/01/11 09:03:17;;;;;;;94.70;39.57;;;-3.70;99.90;;;;;;8464178;27;20171;-69
2022/01/11 09:07:18;;;;;;;81.40;32.27;;;-3.50;99.90;;;;;;8480348;27;20179;-68
2022/01/11 09:11:19;;;;;;;100.40;34.53;;;-3.40;99.90;;;;;;8464770;27;20190;-65
2022/01/11 09:15:20;;;;;;;96.00;34.23;;;-3.20;99.90;;;;;;8454667;28;20235;-66
2022/01/11 09:19:21;;;;;;;94.00;37.23;;;-3.00;99.90;;;;;;8472673;27;20251;-65
2022/01/11 09:23:22;;;;;;;84.53;33.73;;;-2.90;99.90;;;;;;8484074;27;20183;-65
2022/01/11 09:27:23;;;;;;;75.10;29.97;;;-2.80;99.90;;;;;;8482043;27;20186;-65
2022/01/11 09:31:24;;;;;;;71.50;30.87;;;-2.60;99.90;;;;;;8476651;27;20184;-65
2022/01/11 09:35:25;;;;;;;72.27;31.17;;;-2.50;99.90;;;;;;8478221;27;20253;-65
2022/01/11 09:39:26;;;;;;;74.57;34.63;;;-2.30;99.90;;;;;;8462588;27;20262;-65
2022/01/11 09:43:28;;;;;;;56.37;27.30;;;-2.20;99.90;;;;;;8489256;27;20176;-65
2022/01/11 09:47:29;;;;;;;50.47;23.07;;;-2.10;99.90;;;;;;8489871;27;20282;-65
2022/01/11 09:51:32;;;;;;;46.37;23.20;;;-2.00;99.90;;;;;;8481078;27;20291;-65
2022/01/11 09:55:33;;;;;;;56.97;26.57;;;-1.90;99.90;;;;;;8471977;27;20204;-65
2022/01/11 09:59:35;;;;;;;47.70;23.53;;;-1.80;99.90;;;;;;8472558;27;20300;-65
2022/01/11 10:03:55;;;;;;;39.13;19.93;;;-1.60;99.90;;;;;;8482641;27;20182;-65
2022/01/11 10:07:56;;;;;;;47.50;23.53;;;-1.50;99.90;;;;;;8477216;27;20197;-65
2022/01/11 10:11:59;;;;;;;42.13;21.33;;;-1.40;99.90;;;;;;8466068;27;20187;-64
2022/01/11 10:16:28;;;;;;;40.43;20.00;;;-1.20;99.90;;;;;;8454194;28;20209;-65
2022/01/11 10:20:29;;;;;;;41.57;18.93;;;-1.10;99.90;;;;;;8470151;27;20176;-64
2022/01/11 10:24:42;;;;;;;44.87;21.53;;;-0.90;99.90;;;;;;8482723;27;20182;-65
2022/01/11 10:28:43;;;;;;;43.20;21.20;;;-0.70;99.90;;;;;;8478367;27;20179;-64
2022/01/11 10:32:45;;;;;;;39.13;20.97;;;-0.70;99.90;;;;;;8476407;27;20308;-65
2022/01/11 10:36:46;;;;;;;44.60;22.40;;;-0.60;99.90;;;;;;8473520;27;20198;-65
2022/01/11 10:40:47;;;;;;;43.73;22.07;;;-0.60;99.90;;;;;;8469383;27;20174;-64
2022/01/11 10:44:58;;;;;;;41.43;20.63;;;-0.50;99.90;;;;;;8484816;27;20183;-64
2022/01/11 10:48:59;;;;;;;43.33;22.20;;;-0.50;99.90;;;;;;8476488;27;20249;-64
2022/01/11 10:53:03;;;;;;;48.20;24.47;;;-0.30;99.90;;;;;;8475520;27;20199;-64
2022/01/11 10:57:15;;;;;;;39.40;21.53;;;-0.30;99.90;;;;;;8483680;27;20204;-64
2022/01/11 11:01:16;;;;;;;44.50;23.13;;;-0.20;99.90;;;;;;8477359;27;20247;-64
2022/01/11 11:05:23;;;;;;;46.17;21.53;;;-0.10;99.90;;;;;;8477211;28;20187;-64
2022/01/11 11:09:24;;;;;;;44.80;23.37;;;0.00;99.90;;;;;;8461681;28;20179;-63
2022/01/11 11:13:28;;;;;;;41.17;20.43;;;0.00;99.90;;;;;;8487681;27;20175;-64
2022/01/11 11:17:37;;;;;;;36.87;18.67;;;0.10;99.90;;;;;;8486650;27;20214;-64
2022/01/11 11:21:39;;;;;;;41.10;20.30;;;0.10;99.90;;;;;;8478141;28;20195;-64
2022/01/11 11:25:40;;;;;;;42.50;20.40;;;0.20;99.90;;;;;;8473915;28;20176;-65
2022/01/11 11:29:42;;;;;;;42.10;20.70;;;0.30;99.90;;;;;;8476702;28;20288;-63
2022/01/11 11:33:44;;;;;;;44.07;22.53;;;0.30;99.90;;;;;;8469786;28;20264;-71
2022/01/11 11:37:47;;;;;;;50.53;24.47;;;0.30;1.00;;;;;;8469490;27;20199;-64
2022/01/11 11:41:51;;;;;;;36.27;19.33;;;0.20;1.00;;;;;;8469271;28;20175;-66
2022/01/11 11:45:52;;;;;;;56.77;26.90;;;0.30;1.00;;;;;;8472126;27;20179;-64
2022/01/11 11:49:55;;;;;;;51.30;27.63;;;0.40;99.90;;;;;;8470075;27;20179;-65
2022/01/11 11:53:55;;;;;;;42.50;21.47;;;0.40;99.90;;;;;;8454696;28;20184;-65
2022/01/11 11:58:08;;;;;;;27.80;15.57;;;0.40;99.90;;;;;;8460331;28;20234;-64
2022/01/11 12:02:10;;;;;;;34.00;17.40;;;0.50;1.00;;;;;;8470598;28;20176;-65
2022/01/11 12:06:27;;;;;;;37.47;18.43;;;0.50;99.90;;;;;;8472828;27;20265;-66
2022/01/11 12:11:10;;;;;;;68.17;30.23;;;0.50;99.90;;;;;;8470623;27;20279;-65
2022/01/11 12:15:36;;;;;;;38.13;19.50;;;0.50;11.30;;;;;;8451848;27;20215;-66
2022/01/11 12:19:46;;;;;;;59.77;27.87;;;0.50;1.00;;;;;;8478274;27;20188;-65
2022/01/11 12:23:47;;;;;;;31.53;15.63;;;0.50;99.90;;;;;;8469360;27;20175;-65
2022/01/11 12:28:04;;;;;;;31.90;16.10;;;0.50;99.90;;;;;;8473442;27;20179;-65
2022/01/11 12:32:08;;;;;;;28.33;13.67;;;0.50;1.00;;;;;;8481309;27;20192;-65
2022/01/11 12:36:09;;;;;;;23.03;13.50;;;0.60;99.90;;;;;;8478738;27;20202;-65
2022/01/11 12:40:15;;;;;;;22.40;12.07;;;0.60;99.90;;;;;;8463745;27;20180;-65
2022/01/11 12:44:28;;;;;;;22.53;12.27;;;0.50;1.00;;;;;;8485221;27;20186;-64
2022/01/11 12:48:48;;;;;;;22.67;12.37;;;0.60;99.90;;;;;;8485419;27;20183;-65
2022/01/11 12:52:57;;;;;;;18.67;11.07;;;0.70;99.90;;;;;;8486797;27;20183;-65
2022/01/11 12:57:00;;;;;;;19.67;11.40;;;0.70;99.90;;;;;;8477953;27;20222;-64
2022/01/11 13:01:18;;;;;;;20.90;12.77;;;0.70;99.90;;;;;;8483584;27;20179;-65
2022/01/11 13:05:20;;;;;;;20.40;11.47;;;0.70;1.00;;;;;;8462229;27;20172;-65
2022/01/11 13:09:22;;;;;;;24.73;13.37;;;0.80;1.00;;;;;;8463168;27;20212;-65
2022/01/11 13:13:25;;;;;;;27.73;15.77;;;0.80;1.00;;;;;;8474748;27;20183;-64
2022/01/11 13:17:26;;;;;;;28.33;14.93;;;0.80;1.00;;;;;;8467338;27;20294;-65
2022/01/11 13:21:26;;;;;;;29.53;16.77;;;0.80;99.90;;;;;;8472332;27;20236;-64
2022/01/11 13:25:41;;;;;;;35.03;20.70;;;0.70;1.00;;;;;;8468948;27;20220;-64
2022/01/11 13:29:42;;;;;;;35.60;18.63;;;0.70;99.90;;;;;;8476870;27;20172;-64
2022/01/11 13:33:48;;;;;;;36.80;20.10;;;0.70;1.00;;;;;;8470791;27;20174;-65
2022/01/11 13:37:49;;;;;;;40.17;21.27;;;0.70;1.00;;;;;;8476626;27;20221;-65
2022/01/11 13:41:55;;;;;;;38.70;21.53;;;0.70;99.90;;;;;;8465168;27;20184;-65
2022/01/11 13:45:56;;;;;;;35.57;20.40;;;0.60;1.00;;;;;;8472122;27;20197;-69
2022/01/11 13:49:58;;;;;;;33.63;19.33;;;0.60;99.90;;;;;;8478986;27;20183;-65
2022/01/11 13:54:07;;;;;;;30.93;17.90;;;0.50;1.00;;;;;;8486666;27;20182;-65
2022/01/11 13:58:08;;;;;;;30.97;16.83;;;0.50;60.70;;;;;;8480323;27;20219;-65
2022/01/11 14:02:12;;;;;;;31.80;16.53;;;0.50;99.90;;;;;;8470460;27;20203;-65
2022/01/11 14:06:14;;;;;;;32.43;17.93;;;0.40;99.90;;;;;;8477016;27;20465;-65
2022/01/11 14:10:15;;;;;;;32.27;16.43;;;0.30;1.00;;;;;;8474316;27;20184;-65
2022/01/11 14:14:22;;;;;;;31.07;16.93;;;0.20;1.00;;;;;;8454617;27;20183;-64
2022/01/11 14:18:26;;;;;;;30.87;16.10;;;0.20;73.80;;;;;;8469456;27;20234;-65
2022/01/11 14:22:45;;;;;;;29.47;15.53;;;0.10;99.90;;;;;;8472358;27;20171;-72
2022/01/11 14:26:49;;;;;;;33.60;17.10;;;0.00;85.70;;;;;;8467612;27;20179;-65
2022/01/11 14:30:56;;;;;;;28.03;15.20;;;-0.20;99.90;;;;;;8480118;27;20202;-65
2022/01/11 14:35:07;;;;;;;27.17;14.67;;;-0.30;1.00;;;;;;8462942;27;20285;-65
2022/01/11 14:39:11;;;;;;;25.80;14.17;;;-0.50;43.10;;;;;;8475472;27;20328;-65
2022/01/11 14:43:20;;;;;;;25.20;13.90;;;-0.60;99.90;;;;;;8472473;27;20294;-65
2022/01/11 14:47:21;;;;;;;37.60;18.27;;;-0.80;99.90;;;;;;8483075;27;20183;-65
2022/01/11 14:51:24;;;;;;;35.43;17.33;;;-1.00;1.00;;;;;;8469769;27;20190;-65
2022/01/11 14:55:53;;;;;;;30.07;15.63;;;-1.30;44.80;;;;;;8478955;27;20193;-65
2022/01/11 14:59:54;;;;;;;31.23;14.30;;;-1.50;99.90;;;;;;8475314;27;20177;-66
2022/01/11 15:04:03;;;;;;;35.27;16.97;;;-1.70;99.90;;;;;;8471883;28;20303;-66
2022/01/11 15:08:05;;;;;;;27.93;15.57;;;-1.90;99.90;;;;;;8461802;28;20187;-66
2022/01/11 15:12:21;;;;;;;34.03;15.67;;;-2.00;99.90;;;;;;8469722;28;20182;-66
2022/01/11 15:16:27;;;;;;;25.93;13.97;;;-2.20;99.90;;;;;;8451077;28;20204;-67
2022/01/11 15:20:28;;;;;;;31.97;15.30;;;-2.40;99.90;;;;;;8473063;28;20185;-67
2022/01/11 15:24:30;;;;;;;28.23;13.27;;;-2.60;99.90;;;;;;8479522;27;20172;-67
2022/01/11 15:28:31;;;;;;;27.27;14.10;;;-2.70;99.90;;;;;;8485645;27;20192;-67
2022/01/11 15:32:34;;;;;;;26.23;13.57;;;-2.90;99.90;;;;;;8479287;28;20284;-67
2022/01/11 15:36:35;;;;;;;23.53;11.97;;;-3.10;99.90;;;;;;8471375;27;20215;-67
2022/01/11 15:40:36;;;;;;;29.43;14.03;;;-3.20;99.90;;;;;;8487712;27;20176;-69
2022/01/11 15:44:37;;;;;;;29.07;14.83;;;-3.30;99.90;;;;;;8473046;27;20390;-69
2022/01/11 15:48:39;;;;;;;35.80;17.07;;;-3.40;99.90;;;;;;8468869;27;20187;-69
2022/01/11 15:52:40;;;;;;;59.53;30.87;;;-3.50;99.90;;;;;;8466925;27;20270;-69
2022/01/11 15:56:42;;;;;;;160.53;65.50;;;-3.40;99.90;;;;;;8463541;27;20200;-69
2022/01/11 16:00:42;;;;;;;173.00;61.70;;;-3.40;99.90;;;;;;8479626;27;20311;-70
2022/01/11 16:04:43;;;;;;;215.60;79.30;;;-3.30;99.90;;;;;;8493335;27;20183;-70
2022/01/11 16:08:44;;;;;;;180.57;65.37;;;-3.40;99.90;;;;;;8481368;27;20183;-69
2022/01/11 16:12:45;;;;;;;110.17;41.87;;;-3.60;99.90;;;;;;8482766;27;20186;-70
2022/01/11 16:16:47;;;;;;;63.03;29.30;;;-3.70;99.90;;;;;;8482847;27;20206;-70
2022/01/11 16:20:48;;;;;;;44.40;19.07;;;-3.90;99.90;;;;;;8486960;27;20247;-70
2022/01/11 16:24:49;;;;;;;40.30;17.63;;;-4.00;99.90;;;;;;8489861;27;20230;-70
2022/01/11 16:28:51;;;;;;;33.00;15.80;;;-4.20;99.90;;;;;;8492478;27;20206;-69
2022/01/11 16:32:57;;;;;;;34.73;16.97;;;-4.30;99.90;;;;;;8471565;27;20179;-69
2022/01/11 16:36:58;;;;;;;31.67;13.70;;;-4.40;99.90;;;;;;8481800;27;20203;-70
2022/01/11 16:45:00;;;;;;;34.40;17.13;;;-4.60;99.90;;;;;;8472102;27;20633;-69
2022/01/11 16:49:01;;;;;;;37.23;17.93;;;-4.60;99.90;;;;;;8484189;27;20193;-69
2022/01/11 16:53:04;;;;;;;34.63;17.13;;;-4.70;99.90;;;;;;8482668;27;20201;-69
2022/01/11 16:57:09;;;;;;;46.87;21.23;;;-4.80;99.90;;;;;;8468017;27;20211;-69
2022/01/11 17:01:10;;;;;;;38.60;18.37;;;-4.90;99.90;;;;;;8482075;27;20279;-69
2022/01/11 17:05:11;;;;;;;42.60;18.33;;;-5.00;99.90;;;;;;8471945;27;20187;-69
2022/01/11 17:09:11;;;;;;;53.70;21.80;;;-5.10;99.90;;;;;;8485990;27;20205;-69
2022/01/11 17:13:12;;;;;;;52.23;21.20;;;-5.10;99.90;;;;;;8465226;27;20491;-69
2022/01/11 17:17:13;;;;;;;56.40;22.90;;;-5.10;99.90;;;;;;8462676;27;20225;-69
2022/01/11 17:21:14;;;;;;;60.23;24.47;;;-5.20;99.90;;;;;;8480807;27;20190;-69
2022/01/11 17:25:17;;;;;;;72.43;30.97;;;-5.30;99.90;;;;;;8482348;27;20186;-69
2022/01/11 17:29:18;;;;;;;60.13;27.70;;;-5.30;99.90;;;;;;8483648;27;20242;-68
2022/01/11 17:33:20;;;;;;;48.43;23.07;;;-5.30;99.90;;;;;;8484042;27;20218;-69
2022/01/11 17:37:22;;;;;;;48.63;22.30;;;-5.40;99.90;;;;;;8490098;27;20263;-69
2022/01/11 17:41:23;;;;;;;44.73;19.73;;;-5.50;99.90;;;;;;8462896;27;20179;-69
2022/01/11 17:45:24;;;;;;;48.67;19.63;;;-5.60;99.90;;;;;;8485313;27;20186;-69
2022/01/11 17:49:26;;;;;;;44.87;18.37;;;-5.60;99.90;;;;;;8474115;27;20185;-73
2022/01/11 17:53:33;;;;;;;39.33;18.17;;;-5.70;99.90;;;;;;8486285;27;20182;-69
2022/01/11 17:57:34;;;;;;;44.00;18.73;;;-5.80;99.90;;;;;;8479077;27;20212;-70
2022/01/11 18:01:37;;;;;;;44.67;18.67;;;-5.90;99.90;;;;;;8487340;27;20263;-69
2022/01/11 18:05:38;;;;;;;49.67;21.13;;;-5.90;99.90;;;;;;8476228;27;20396;-69
2022/01/11 18:09:41;;;;;;;53.33;20.83;;;-6.00;99.90;;;;;;8486758;27;20178;-69
2022/01/11 18:13:43;;;;;;;43.30;20.63;;;-6.00;99.90;;;;;;8467709;27;20184;-71
2022/01/11 18:17:44;;;;;;;48.93;21.73;;;-6.00;99.90;;;;;;8484614;27;20209;-69
2022/01/11 18:21:46;;;;;;;55.53;22.57;;;-6.10;99.90;;;;;;8481949;27;20176;-70
2022/01/11 18:25:47;;;;;;;53.97;22.03;;;-6.10;99.90;;;;;;8460391;27;20210;-73
2022/01/11 18:29:48;;;;;;;50.80;21.37;;;-6.20;99.90;;;;;;8473680;27;20217;-70
2022/01/11 18:33:49;;;;;;;50.27;21.77;;;-6.20;99.90;;;;;;8468174;27;20175;-70
2022/01/11 18:37:50;;;;;;;56.70;22.67;;;-6.30;99.90;;;;;;8474636;27;20229;-70
2022/01/11 18:41:51;;;;;;;57.90;24.77;;;-6.40;99.90;;;;;;8474568;27;20493;-69
2022/01/11 18:45:52;;;;;;;55.73;23.53;;;-6.40;99.90;;;;;;8488404;27;20202;-70
2022/01/11 18:49:53;;;;;;;69.50;25.40;;;-6.50;99.90;;;;;;8463501;27;20183;-69
2022/01/11 18:54:00;;;;;;;77.17;28.90;;;-6.50;99.90;;;;;;8462463;27;20219;-69
2022/01/11 18:58:00;;;;;;;93.50;31.40;;;-6.60;99.90;;;;;;8442400;27;20295;-69
2022/01/11 19:02:05;;;;;;;98.53;34.83;;;-6.60;99.90;;;;;;8462354;28;20172;-68
2022/01/11 19:06:07;;;;;;;114.93;37.43;;;-6.70;99.90;;;;;;8450868;28;20237;-68
2022/01/11 19:10:08;;;;;;;100.87;36.13;;;-6.70;99.90;;;;;;8481346;28;20204;-68
2022/01/11 19:14:10;;;;;;;88.27;34.37;;;-6.80;99.90;;;;;;8490287;27;20229;-68
2022/01/11 19:18:13;;;;;;;114.27;40.27;;;-6.80;99.90;;;;;;8475527;27;20253;-68
2022/01/11 19:22:14;;;;;;;131.77;44.10;;;-6.80;99.90;;;;;;8481127;27;20176;-69
2022/01/11 19:26:22;;;;;;;134.03;44.93;;;-6.90;99.90;;;;;;8492189;27;20252;-68
2022/01/11 19:30:23;;;;;;;139.53;46.27;;;-6.90;99.90;;;;;;8489405;27;20226;-68
2022/01/11 19:34:25;;;;;;;129.27;44.10;;;-7.00;99.90;;;;;;8476297;27;20226;-68
2022/01/11 19:38:27;;;;;;;113.40;40.10;;;-7.00;99.90;;;;;;8470362;27;20288;-69
2022/01/11 19:42:32;;;;;;;129.33;44.87;;;-7.10;99.90;;;;;;8485624;27;20184;-68
2022/01/11 19:46:33;;;;;;;125.63;45.60;;;-7.10;99.90;;;;;;8472893;27;20594;-68
2022/01/11 19:50:34;;;;;;;144.57;46.80;;;-7.10;99.90;;;;;;8481292;27;20187;-68
2022/01/11 19:54:35;;;;;;;119.83;42.87;;;-7.20;99.90;;;;;;8474704;27;20213;-68
2022/01/11 19:58:36;;;;;;;111.53;40.30;;;-7.20;99.90;;;;;;8476337;27;20215;-68
2022/01/11 20:02:38;;;;;;;109.10;40.63;;;-7.30;99.90;;;;;;8471118;27;20176;-68
2022/01/11 20:06:40;;;;;;;112.20;39.13;;;-7.30;99.90;;;;;;8483435;27;20284;-69
2022/01/11 20:10:43;;;;;;;147.70;50.40;;;-7.40;99.90;;;;;;8461667;27;20199;-69
2022/01/11 20:14:44;;;;;;;131.10;47.07;;;-7.40;99.90;;;;;;8476552;27;20297;-68
2022/01/11 20:18:46;;;;;;;137.40;45.23;;;-7.40;99.90;;;;;;8485342;27;20203;-69
2022/01/11 20:27:14;;;;;;;133.13;44.27;;;-7.50;99.90;;;;;;8481143;27;20198;-69
2022/01/11 20:31:16;;;;;;;137.10;42.50;;;-7.40;99.90;;;;;;8481605;27;20271;-69
2022/01/11 20:35:18;;;;;;;113.90;39.70;;;-7.40;99.90;;;;;;8481056;27;20211;-69
2022/01/11 20:39:19;;;;;;;111.47;38.30;;;-7.50;99.90;;;;;;8486330;27;20234;-68
2022/01/11 20:43:19;;;;;;;112.97;39.27;;;-7.60;99.90;;;;;;8477979;27;20180;-68
2022/01/11 20:47:25;;;;;;;101.10;35.40;;;-7.70;99.90;;;;;;8473931;27;20183;-68
2022/01/11 20:51:29;;;;;;;92.03;32.23;;;-7.70;99.90;;;;;;8485325;27;20187;-68